Airfield :
LOGIN :

Register | Disclaimer

   EN    FR    IT 

 










Legend :    VFR   Marginal VFR   IFR   Intensive IFR   Very Intensive IFR
Visi :
Ceiling :
>= 8 km
>= 3000ft
5 to 8 km
1000 to 3000 ft
1500m to 5 km
500 to 1000 ft
800 to 1500m
200 to 500 ft
< 800m
< 200 ft
Symbols :   Thunderstorms  Fog  Heavy snow  Heavy precipitations  Wind > 20 kt
SIGMETs :     Misc.  Thunderstorms  Icing  Turbulence  Mountain Waves  Volcanic Ashes






- Airport Elevation : 302 ft
- IATA code : CGN


EDDK - Cologne Bonn

CURRENT METAR :
  • 021450Z AUTO 27013KT 9999 SCT019 BKN025 OVC039 09/05 Q1025 NOSIG

EXPIRED METARs :
  • 021420Z AUTO 27014KT 9999 OVC019 09/05 Q1024 NOSIG
  • 021350Z AUTO 28014KT 9999 BKN019 09/05 Q1024 NOSIG
  • 021320Z AUTO 28016KT 9999 OVC018 09/05 Q1024 TEMPO 28015G25KT
  • 021250Z AUTO 28017KT 9999 OVC017 08/05 Q1024 TEMPO 28015G25KT
  • 021220Z AUTO 29015KT 9999 BKN016 08/05 Q1024 TEMPO BKN012

TAF TAF EDDK
Valid from the 02 at 12:00 until the 03 at 18:00 UTC


021100Z 0212/0318 27013KT 9999 OVC015
TEMPO 0212/0219 3500 RADZ BKN010
PROB30
TEMPO 0212/0216 BKN008
PROB30
TEMPO 0219/0305 3500 -DZ BKN008
BECMG 0305/0308 BKN012
PROB30
TEMPO 0308/0318 BKN008
PROB30
TEMPO 0311/0315 27015G25KT
PROB30
TEMPO 0315/0318 3000 DZRA



MET'MAP, your aeronautical weather chart ! - Copyright ORBIFLY December 2007 - Disclaimer

ORBIFLY MET'MAP TEAM :

Programming & Development : Alexandra Zaïnal
Original concept : Baudouin d'Aumeries
Technical & hardware support : Manuel Goepfert
Assistance : Marc-Olivier Méhu




SOURCES & CREDITS :

   NOAA